Time;durP1;ratioP1;P1;durP2;ratioP2;P2;SDS_P1;SDS_P2;PMS_P1;PMS_P2;Temp;Humidity;BMP_temperature;BMP_pressure;BME280_temperature;BME280_humidity;BME280_pressure;Samples;Min_cycle;Max_cycle;Signal;HPM_P1;HPM_P2
2021/12/27 00:01:10;;;;;;;11.57;7.75;;;4.10;84.30;;;;;;5097309;28;20032;-72
2021/12/27 00:03:37;;;;;;;14.05;8.02;;;4.10;84.30;;;;;;5097560;28;20236;-71
2021/12/27 00:06:04;;;;;;;11.13;7.53;;;4.10;84.20;;;;;;5097330;28;20536;-72
2021/12/27 00:08:30;;;;;;;11.15;7.07;;;4.10;84.30;;;;;;5115604;28;20016;-72
2021/12/27 00:10:55;;;;;;;12.55;8.40;;;4.10;84.20;;;;;;5097182;28;20028;-71
2021/12/27 00:13:21;;;;;;;13.00;7.82;;;4.10;84.30;;;;;;5097046;28;20031;-71
2021/12/27 00:15:47;;;;;;;11.38;8.18;;;4.20;84.40;;;;;;5097380;28;20018;-71
2021/12/27 00:18:13;;;;;;;15.63;8.10;;;4.20;84.90;;;;;;5096978;28;20027;-71
2021/12/27 00:20:39;;;;;;;11.27;7.47;;;4.20;84.30;;;;;;5097154;28;20429;-76
2021/12/27 00:23:04;;;;;;;11.00;7.30;;;4.20;84.30;;;;;;5115503;28;20028;-76
2021/12/27 00:25:30;;;;;;;12.57;7.97;;;4.20;84.30;;;;;;5096978;28;20123;-77
2021/12/27 00:27:56;;;;;;;13.20;7.95;;;4.20;84.30;;;;;;5096959;28;20023;-76
2021/12/27 00:30:22;;;;;;;11.85;7.78;;;4.20;84.30;;;;;;5115378;28;20031;-76
2021/12/27 00:32:49;;;;;;;13.98;7.18;;;4.20;84.30;;;;;;5115012;28;20395;-76
2021/12/27 00:35:17;;;;;;;12.15;7.18;;;4.20;84.30;;;;;;5096681;28;20030;-75
2021/12/27 00:37:43;;;;;;;12.50;7.68;;;4.30;84.40;;;;;;5096743;28;20390;-77
2021/12/27 00:40:11;;;;;;;10.27;6.95;;;4.30;84.50;;;;;;5114977;28;20016;-77
2021/12/27 00:42:37;;;;;;;13.90;8.55;;;4.30;84.50;;;;;;5114940;28;20127;-76
2021/12/27 00:45:03;;;;;;;11.60;7.43;;;4.30;84.40;;;;;;5096570;28;20016;-76
2021/12/27 00:47:28;;;;;;;11.35;7.32;;;4.30;84.40;;;;;;5114793;28;20403;-76
2021/12/27 00:49:54;;;;;;;12.20;8.10;;;4.30;84.40;;;;;;5114857;28;20015;-76
2021/12/27 00:52:19;;;;;;;11.50;7.20;;;4.30;84.50;;;;;;5096186;28;20172;-71
2021/12/27 00:54:45;;;;;;;11.68;7.55;;;4.30;84.50;;;;;;5096271;28;20452;-71
2021/12/27 00:57:11;;;;;;;9.30;7.20;;;4.30;84.40;;;;;;5096277;28;20110;-71
2021/12/27 00:59:36;;;;;;;13.07;7.85;;;4.30;84.40;;;;;;5096343;28;20019;-71
2021/12/27 01:02:02;;;;;;;11.27;7.43;;;4.30;84.40;;;;;;5114687;28;20099;-71
2021/12/27 01:04:28;;;;;;;12.20;8.05;;;4.30;84.40;;;;;;5096190;28;20027;-71
2021/12/27 01:06:54;;;;;;;12.15;7.50;;;4.40;84.50;;;;;;5114322;28;20094;-72
2021/12/27 01:09:34;;;;;;;12.35;7.10;;;4.40;84.50;;;;;;5114281;28;20067;-76
2021/12/27 01:12:26;;;;;;;11.73;7.80;;;4.40;84.50;;;;;;5114348;28;20015;-76
2021/12/27 01:17:56;;;;;;;;;;;4.40;84.50;;;;;;5052041;28;20021;-76
2021/12/27 01:20:23;;;;;;;9.50;6.72;;;4.40;84.50;;;;;;5051610;28;19905;-76
2021/12/27 01:22:53;;;;;;;11.10;7.03;;;4.40;84.40;;;;;;5081255;28;20042;-76
2021/12/27 01:25:19;;;;;;;11.85;7.20;;;4.40;84.30;;;;;;5113910;28;20081;-72
2021/12/27 01:27:45;;;;;;;12.05;7.30;;;4.40;84.40;;;;;;5114017;28;20035;-71
2021/12/27 01:30:15;;;;;;;10.98;7.35;;;4.40;84.50;;;;;;5095796;28;20107;-71
2021/12/27 01:32:47;;;;;;;10.68;7.03;;;4.40;84.50;;;;;;5095687;28;20500;-71
2021/12/27 01:35:13;;;;;;;9.98;6.80;;;4.40;84.60;;;;;;5095816;28;20019;-71
2021/12/27 01:37:39;;;;;;;12.27;7.45;;;4.40;84.60;;;;;;5095548;28;20023;-72
2021/12/27 01:40:06;;;;;;;11.52;7.65;;;4.40;84.60;;;;;;5113779;28;20407;-71
2021/12/27 01:42:31;;;;;;;10.77;7.90;;;4.40;85.20;;;;;;5113775;28;20116;-71
2021/12/27 01:44:57;;;;;;;11.98;7.88;;;4.40;84.60;;;;;;5113682;28;20016;-71
2021/12/27 01:47:22;;;;;;;11.35;7.20;;;4.50;84.70;;;;;;5113768;28;20460;-71
2021/12/27 01:49:49;;;;;;;9.98;7.05;;;4.50;84.70;;;;;;5113589;28;20472;-71
2021/12/27 01:52:15;;;;;;;9.68;7.10;;;4.50;84.70;;;;;;5113399;28;20054;-71
2021/12/27 01:54:41;;;;;;;10.73;7.40;;;4.50;84.60;;;;;;5095152;28;20114;-71
2021/12/27 01:57:07;;;;;;;12.25;7.60;;;4.50;84.70;;;;;;5095282;28;20022;-71
2021/12/27 01:59:32;;;;;;;9.60;6.95;;;4.50;84.70;;;;;;5113500;28;20048;-71
2021/12/27 02:01:58;;;;;;;12.32;7.35;;;4.50;84.70;;;;;;5095013;28;20351;-71
2021/12/27 02:04:23;;;;;;;10.63;7.60;;;4.50;84.70;;;;;;5113422;28;20055;-71
2021/12/27 02:06:49;;;;;;;12.63;8.07;;;4.50;84.70;;;;;;5095134;28;20024;-71
2021/12/27 02:09:18;;;;;;;11.70;7.72;;;4.60;84.80;;;;;;5094984;28;20118;-71
2021/12/27 02:11:46;;;;;;;10.85;7.45;;;4.60;84.70;;;;;;5113454;28;20031;-71
2021/12/27 02:14:12;;;;;;;10.10;7.32;;;4.60;84.80;;;;;;5113178;28;20792;-71
2021/12/27 02:16:38;;;;;;;11.95;7.93;;;4.60;84.80;;;;;;5113108;28;20028;-71
2021/12/27 02:19:03;;;;;;;11.02;7.68;;;4.60;84.70;;;;;;5113407;28;20028;-72
2021/12/27 02:21:29;;;;;;;11.85;7.03;;;4.60;84.80;;;;;;5110164;28;20019;-71
2021/12/27 02:23:56;;;;;;;11.90;7.35;;;4.60;84.80;;;;;;5113312;28;20080;-72
2021/12/27 02:26:22;;;;;;;13.50;7.78;;;4.60;84.90;;;;;;5113296;28;20536;-71
2021/12/27 02:28:48;;;;;;;10.88;7.95;;;4.60;84.90;;;;;;5113427;28;20024;-72
2021/12/27 02:31:16;;;;;;;11.40;7.80;;;4.60;84.90;;;;;;5094976;28;20063;-71
2021/12/27 02:33:43;;;;;;;10.88;7.40;;;4.60;84.90;;;;;;5094929;28;20483;-71
2021/12/27 02:36:11;;;;;;;11.32;7.35;;;4.60;84.90;;;;;;5094936;28;20028;-71
2021/12/27 02:38:40;;;;;;;11.63;6.68;;;4.60;84.90;;;;;;5113196;28;20031;-71
2021/12/27 02:41:07;;;;;;;11.68;7.82;;;4.60;84.90;;;;;;5095024;28;20020;-71
2021/12/27 02:43:35;;;;;;;9.27;6.35;;;4.60;84.90;;;;;;5095005;28;20023;-76
2021/12/27 02:46:04;;;;;;;11.15;7.63;;;4.60;84.90;;;;;;5113222;28;20020;-76
2021/12/27 02:48:33;;;;;;;9.88;7.32;;;4.60;85.00;;;;;;5113175;28;20426;-77
2021/12/27 02:50:59;;;;;;;11.07;7.60;;;4.60;85.00;;;;;;5113320;28;20073;-75
2021/12/27 02:53:26;;;;;;;9.32;6.82;;;4.70;85.00;;;;;;5113088;28;20039;-75
2021/12/27 02:55:53;;;;;;;9.23;6.85;;;4.70;85.00;;;;;;5113174;28;20024;-76
2021/12/27 02:58:20;;;;;;;10.30;7.10;;;4.70;85.10;;;;;;5113138;28;20023;-75
2021/12/27 03:00:48;;;;;;;10.38;7.10;;;4.70;85.10;;;;;;5094807;28;20427;-75
2021/12/27 03:03:14;;;;;;;10.48;7.50;;;4.70;85.10;;;;;;5113027;28;20027;-75
2021/12/27 03:05:43;;;;;;;10.50;7.63;;;4.70;85.00;;;;;;5113108;28;20023;-76
2021/12/27 03:08:13;;;;;;;11.20;7.18;;;4.70;85.00;;;;;;5094574;28;20055;-76
2021/12/27 03:10:45;;;;;;;10.23;7.20;;;4.70;85.10;;;;;;5112974;28;20023;-75
2021/12/27 03:13:23;;;;;;;11.85;6.78;;;4.70;85.10;;;;;;5112883;28;20027;-77
2021/12/27 03:15:58;;;;;;;9.60;6.82;;;4.80;85.20;;;;;;5094645;28;20045;-76
2021/12/27 03:18:24;;;;;;;10.43;7.20;;;4.80;85.10;;;;;;5094765;28;20084;-76
2021/12/27 03:20:51;;;;;;;11.40;7.38;;;4.80;85.10;;;;;;5112882;28;20172;-75
2021/12/27 03:23:17;;;;;;;10.23;7.07;;;4.80;85.10;;;;;;5094801;28;20019;-75
2021/12/27 03:25:43;;;;;;;12.95;6.72;;;4.80;85.20;;;;;;5112889;28;20081;-76
2021/12/27 03:28:09;;;;;;;9.98;6.95;;;4.80;85.20;;;;;;5094772;28;20383;-71
2021/12/27 03:30:35;;;;;;;9.85;6.70;;;4.80;85.10;;;;;;5098012;28;20030;-71
2021/12/27 03:33:02;;;;;;;11.65;7.25;;;4.80;85.20;;;;;;5097917;28;20020;-71
2021/12/27 03:35:28;;;;;;;9.95;6.88;;;4.80;85.20;;;;;;5116644;28;20526;-71
2021/12/27 03:37:57;;;;;;;12.10;7.10;;;4.90;85.20;;;;;;5098066;28;20020;-71
2021/12/27 03:40:23;;;;;;;11.02;7.05;;;4.80;85.20;;;;;;5097952;28;20024;-71
2021/12/27 03:42:50;;;;;;;11.35;7.10;;;4.90;85.30;;;;;;5097812;28;20020;-71
2021/12/27 03:45:42;;;;;;;9.32;6.22;;;4.90;85.30;;;;;;5116063;28;20382;-71
2021/12/27 03:48:09;;;;;;;12.13;7.30;;;4.90;85.30;;;;;;5111098;28;20035;-71
2021/12/27 03:50:36;;;;;;;11.35;6.68;;;4.90;85.30;;;;;;5115878;28;20103;-71
2021/12/27 03:53:02;;;;;;;9.55;6.80;;;4.90;85.30;;;;;;5097373;28;20054;-72
2021/12/27 03:55:29;;;;;;;12.90;7.93;;;4.90;85.40;;;;;;5097623;28;20027;-71
2021/12/27 03:58:05;;;;;;;11.82;7.57;;;4.90;85.40;;;;;;5115981;28;20030;-76
2021/12/27 04:00:46;;;;;;;12.45;7.25;;;4.90;85.40;;;;;;5115932;28;20023;-76
2021/12/27 04:03:12;;;;;;;14.35;7.68;;;4.90;85.40;;;;;;5115738;28;20027;-77
2021/12/27 04:05:37;;;;;;;11.27;6.45;;;4.90;85.40;;;;;;5115835;28;20026;-76
2021/12/27 04:08:09;;;;;;;9.15;6.65;;;5.00;85.40;;;;;;5115680;28;20098;-76
2021/12/27 04:10:36;;;;;;;13.38;7.47;;;5.00;85.40;;;;;;5097515;28;20023;-76
2021/12/27 04:13:03;;;;;;;11.73;6.90;;;5.00;85.40;;;;;;5115615;28;20058;-77
2021/12/27 04:15:28;;;;;;;15.55;7.85;;;5.00;85.40;;;;;;5115551;28;20072;-76
2021/12/27 04:17:54;;;;;;;12.90;7.35;;;5.00;85.40;;;;;;5115526;28;20024;-76
2021/12/27 04:20:21;;;;;;;11.70;7.03;;;5.00;85.40;;;;;;5097441;28;20015;-76
2021/12/27 04:22:47;;;;;;;10.77;6.88;;;5.00;85.50;;;;;;5115436;28;20060;-75
2021/12/27 04:25:12;;;;;;;11.90;7.32;;;5.00;85.50;;;;;;5115364;28;20099;-76
2021/12/27 04:27:38;;;;;;;10.95;7.22;;;5.00;85.50;;;;;;5096948;28;20026;-76
2021/12/27 04:30:04;;;;;;;16.95;7.90;;;5.10;85.60;;;;;;5115157;28;20098;-71
2021/12/27 04:32:30;;;;;;;13.32;7.55;;;5.10;85.60;;;;;;5096961;28;20103;-72
2021/12/27 04:34:55;;;;;;;13.00;7.30;;;5.10;85.60;;;;;;5115263;28;20495;-71
2021/12/27 04:37:21;;;;;;;15.02;7.22;;;5.10;85.60;;;;;;5115208;28;20015;-76
2021/12/27 04:39:46;;;;;;;15.43;7.53;;;5.10;85.70;;;;;;5114605;28;20050;-76
2021/12/27 04:42:12;;;;;;;12.70;7.75;;;5.10;85.70;;;;;;5096747;28;20045;-75
2021/12/27 04:44:37;;;;;;;13.98;7.85;;;5.10;85.70;;;;;;5115045;28;20028;-76
2021/12/27 04:47:03;;;;;;;15.00;8.13;;;5.10;85.70;;;;;;5115021;28;20031;-75
2021/12/27 04:49:30;;;;;;;12.30;7.32;;;5.10;85.70;;;;;;5114972;28;20032;-75
2021/12/27 04:51:56;;;;;;;15.70;7.68;;;5.10;85.80;;;;;;5096441;28;20524;-76
2021/12/27 04:54:21;;;;;;;14.35;7.15;;;5.10;85.70;;;;;;5114742;28;20103;-76
2021/12/27 04:56:47;;;;;;;16.25;8.20;;;5.20;85.80;;;;;;5096450;28;20028;-70
2021/12/27 04:59:12;;;;;;;15.35;7.50;;;5.20;85.80;;;;;;5114638;28;20387;-76
2021/12/27 05:01:38;;;;;;;13.30;7.97;;;5.20;85.80;;;;;;5096529;28;20332;-76
2021/12/27 05:04:04;;;;;;;14.30;7.40;;;5.20;85.90;;;;;;5114476;28;20348;-76
2021/12/27 05:06:30;;;;;;;12.70;7.43;;;5.20;85.90;;;;;;5096238;28;20093;-76
2021/12/27 05:08:56;;;;;;;11.52;7.57;;;5.20;85.80;;;;;;5096177;28;20122;-76
2021/12/27 05:11:22;;;;;;;14.75;7.35;;;5.20;85.80;;;;;;5114326;28;20027;-75
2021/12/27 05:13:47;;;;;;;13.30;7.95;;;5.20;85.90;;;;;;5114397;28;20039;-76
2021/12/27 05:16:13;;;;;;;13.88;7.85;;;5.20;86.00;;;;;;5096070;28;20019;-76
2021/12/27 05:18:38;;;;;;;13.73;8.15;;;5.20;86.00;;;;;;5096053;28;20015;-76
2021/12/27 05:21:04;;;;;;;14.20;7.57;;;5.20;86.00;;;;;;5114530;28;20023;-76
2021/12/27 05:23:34;;;;;;;12.70;8.27;;;5.20;85.90;;;;;;5095913;28;20016;-76
2021/12/27 05:25:59;;;;;;;14.18;7.85;;;5.20;86.00;;;;;;5095879;28;20487;-76
2021/12/27 05:28:25;;;;;;;17.58;8.13;;;5.20;86.00;;;;;;5114325;28;20111;-76
2021/12/27 05:30:51;;;;;;;13.65;8.20;;;5.20;86.00;;;;;;5095722;28;20137;-76
2021/12/27 05:33:18;;;;;;;13.68;8.02;;;5.20;86.10;;;;;;5114010;28;20391;-76
2021/12/27 05:35:44;;;;;;;15.95;8.57;;;5.20;86.10;;;;;;5114053;28;20095;-76
2021/12/27 05:38:10;;;;;;;13.38;8.05;;;5.30;86.10;;;;;;5095767;28;20054;-72
2021/12/27 05:40:35;;;;;;;14.95;7.35;;;5.30;86.10;;;;;;5095650;28;20019;-75
2021/12/27 05:43:01;;;;;;;12.43;7.68;;;5.30;86.10;;;;;;5114048;28;20457;-76
2021/12/27 05:45:27;;;;;;;13.20;7.45;;;5.30;86.10;;;;;;5095564;28;20106;-76
2021/12/27 05:47:52;;;;;;;13.40;7.72;;;5.30;86.10;;;;;;5113882;28;20028;-76
2021/12/27 05:50:18;;;;;;;13.30;7.55;;;5.30;86.10;;;;;;5095440;28;20027;-71
2021/12/27 05:52:44;;;;;;;13.57;8.00;;;5.30;86.20;;;;;;5112667;28;20047;-72
2021/12/27 05:55:10;;;;;;;10.57;7.45;;;5.30;86.20;;;;;;5113606;28;20055;-71
2021/12/27 05:57:37;;;;;;;10.63;7.15;;;5.40;86.20;;;;;;5095675;28;20019;-71
2021/12/27 06:00:08;;;;;;;10.80;7.32;;;5.40;86.20;;;;;;5095268;28;20028;-71
2021/12/27 06:02:34;;;;;;;10.40;7.13;;;5.40;86.20;;;;;;5095317;28;20378;-70
2021/12/27 06:05:00;;;;;;;12.82;7.50;;;5.40;86.20;;;;;;5095115;28;20020;-71
2021/12/27 06:07:25;;;;;;;13.98;8.18;;;5.40;86.20;;;;;;5113579;28;20028;-72
2021/12/27 06:09:51;;;;;;;12.55;7.90;;;5.40;86.20;;;;;;5095070;28;20038;-70
2021/12/27 06:12:17;;;;;;;12.63;7.93;;;5.40;86.20;;;;;;5113346;28;20062;-71
2021/12/27 06:14:42;;;;;;;10.68;7.25;;;5.40;86.30;;;;;;5095052;28;20072;-70
2021/12/27 06:17:08;;;;;;;12.32;7.45;;;5.40;86.30;;;;;;5095013;28;20437;-71
2021/12/27 06:19:34;;;;;;;12.25;7.95;;;5.40;86.30;;;;;;5113299;28;20099;-71
2021/12/27 06:22:00;;;;;;;12.30;7.32;;;5.40;86.20;;;;;;5113317;28;20020;-71
2021/12/27 06:24:25;;;;;;;14.32;7.63;;;5.50;86.30;;;;;;5113301;28;20475;-71
2021/12/27 06:26:51;;;;;;;13.50;7.53;;;5.50;86.30;;;;;;5113296;28;20035;-71
2021/12/27 06:29:17;;;;;;;9.85;6.88;;;5.50;86.40;;;;;;5113237;28;20035;-71
2021/12/27 06:31:42;;;;;;;12.73;7.85;;;5.50;86.40;;;;;;5113180;28;20114;-71
2021/12/27 06:34:08;;;;;;;13.40;8.23;;;5.50;86.40;;;;;;5094831;28;20051;-71
2021/12/27 06:36:33;;;;;;;11.60;7.95;;;5.50;86.50;;;;;;5094872;28;20027;-71
2021/12/27 06:39:01;;;;;;;12.60;8.13;;;5.50;86.50;;;;;;5113189;28;20023;-71
2021/12/27 06:41:27;;;;;;;13.00;8.15;;;5.50;86.50;;;;;;5094898;28;20050;-70
2021/12/27 06:43:53;;;;;;;12.13;8.35;;;5.50;86.50;;;;;;5113095;28;20024;-70
2021/12/27 06:46:20;;;;;;;11.90;8.20;;;5.50;86.50;;;;;;5094754;28;20038;-71
2021/12/27 06:48:45;;;;;;;12.07;8.20;;;5.60;86.60;;;;;;5094816;28;20035;-70
2021/12/27 06:51:11;;;;;;;13.60;8.43;;;5.60;86.60;;;;;;5112789;28;20147;-70
2021/12/27 06:53:37;;;;;;;13.32;8.23;;;5.60;86.60;;;;;;5094597;28;20044;-70
2021/12/27 06:56:04;;;;;;;13.13;8.30;;;5.70;86.60;;;;;;5094705;28;20110;-70
2021/12/27 06:58:30;;;;;;;13.70;8.25;;;5.70;86.60;;;;;;5113130;28;20417;-71
2021/12/27 07:00:55;;;;;;;17.50;8.65;;;5.70;86.60;;;;;;5095012;28;20028;-71
2021/12/27 07:03:21;;;;;;;12.82;8.27;;;5.70;86.60;;;;;;5096948;28;20073;-71
2021/12/27 07:05:48;;;;;;;13.52;7.72;;;5.70;86.60;;;;;;5098536;28;20028;-72
2021/12/27 07:08:15;;;;;;;13.55;8.23;;;5.80;86.70;;;;;;5098428;28;20081;-71
2021/12/27 07:10:41;;;;;;;14.48;8.55;;;5.70;86.60;;;;;;5098625;28;20075;-71
2021/12/27 07:13:06;;;;;;;14.48;8.07;;;5.70;86.60;;;;;;5098263;28;20098;-71
2021/12/27 07:15:33;;;;;;;19.23;8.70;;;5.80;86.70;;;;;;5116763;28;20035;-71
2021/12/27 07:17:58;;;;;;;14.52;7.78;;;5.80;86.70;;;;;;5098305;28;20024;-71
2021/12/27 07:20:24;;;;;;;13.30;8.52;;;5.80;86.70;;;;;;5098387;28;20048;-72
2021/12/27 07:22:50;;;;;;;12.88;7.78;;;5.80;86.70;;;;;;5098415;28;20019;-71
2021/12/27 07:25:16;;;;;;;13.88;8.23;;;5.80;86.70;;;;;;5098290;28;20020;-72
2021/12/27 07:27:42;;;;;;;14.70;9.13;;;5.90;86.70;;;;;;5116434;28;20030;-72
2021/12/27 07:30:10;;;;;;;13.43;8.48;;;5.80;86.70;;;;;;5098173;28;20020;-72
2021/12/27 07:32:36;;;;;;;14.77;8.52;;;5.80;86.80;;;;;;5116341;28;20035;-72
2021/12/27 07:35:03;;;;;;;14.93;8.57;;;5.80;86.80;;;;;;5098058;28;20020;-72
2021/12/27 07:37:29;;;;;;;14.32;8.45;;;5.80;86.90;;;;;;5116320;28;20016;-71
2021/12/27 07:39:54;;;;;;;13.23;8.00;;;5.80;86.90;;;;;;5116215;28;20031;-72
2021/12/27 07:42:20;;;;;;;15.30;8.18;;;5.80;87.00;;;;;;5116250;28;20359;-72
2021/12/27 07:48:27;;;;;;;10.77;7.13;;;5.80;87.00;;;;;;5116091;28;20116;-72
2021/12/27 07:50:52;;;;;;;14.07;7.63;;;5.80;87.10;;;;;;5115924;28;20558;-72
2021/12/27 07:53:18;;;;;;;11.77;6.95;;;5.80;87.10;;;;;;5097516;28;20080;-73
2021/12/27 07:55:44;;;;;;;11.43;7.55;;;5.80;87.10;;;;;;5097602;28;20340;-72
2021/12/27 07:58:09;;;;;;;13.00;7.78;;;5.80;87.00;;;;;;5115818;28;20094;-72
2021/12/27 08:00:35;;;;;;;15.25;9.40;;;5.80;87.10;;;;;;5115657;28;20421;-73
2021/12/27 08:03:01;;;;;;;15.75;8.82;;;5.80;87.20;;;;;;5097413;28;20022;-72
2021/12/27 08:05:27;;;;;;;12.30;8.10;;;5.80;87.20;;;;;;5115471;28;20024;-72
2021/12/27 08:07:52;;;;;;;14.27;9.15;;;5.80;87.40;;;;;;5097346;28;20160;-72
2021/12/27 08:10:18;;;;;;;15.93;10.15;;;5.70;87.30;;;;;;5097254;28;20483;-72
2021/12/27 08:12:45;;;;;;;13.63;9.02;;;5.70;87.40;;;;;;5115579;28;20058;-73
2021/12/27 08:15:12;;;;;;;14.40;9.35;;;5.70;87.50;;;;;;5096321;28;20023;-71
2021/12/27 08:17:38;;;;;;;13.48;8.13;;;5.70;87.60;;;;;;5115431;28;20023;-71
2021/12/27 08:20:06;;;;;;;12.85;8.07;;;5.80;87.60;;;;;;5115521;28;20077;-71
2021/12/27 08:22:32;;;;;;;11.38;8.00;;;5.80;87.60;;;;;;5096949;28;20543;-71
2021/12/27 08:24:58;;;;;;;14.02;8.38;;;5.80;87.60;;;;;;5097120;28;20020;-72
2021/12/27 08:27:26;;;;;;;11.48;8.15;;;5.80;87.60;;;;;;5115282;28;20475;-73
2021/12/27 08:29:51;;;;;;;13.73;8.02;;;5.90;87.60;;;;;;5115304;28;20047;-73
2021/12/27 08:32:17;;;;;;;11.77;7.60;;;5.90;87.60;;;;;;5115460;28;20082;-72
2021/12/27 08:34:43;;;;;;;11.73;7.88;;;5.90;87.50;;;;;;5096565;28;20483;-72
2021/12/27 08:37:08;;;;;;;12.45;7.90;;;5.90;87.50;;;;;;5115156;28;20100;-73
2021/12/27 08:39:34;;;;;;;22.40;12.43;;;5.90;87.60;;;;;;5115114;28;20126;-72
2021/12/27 08:42:02;;;;;;;15.10;10.02;;;5.90;87.60;;;;;;5115056;28;20071;-72
2021/12/27 08:44:27;;;;;;;13.30;9.13;;;6.00;87.70;;;;;;5096690;28;20072;-72
2021/12/27 08:46:54;;;;;;;14.85;9.38;;;6.00;87.70;;;;;;5114854;28;20023;-73
2021/12/27 08:49:19;;;;;;;13.30;8.35;;;6.00;87.70;;;;;;5114858;28;20023;-73
2021/12/27 08:51:45;;;;;;;11.85;7.55;;;6.00;87.60;;;;;;5114687;28;20509;-71
2021/12/27 08:54:11;;;;;;;12.40;8.57;;;6.10;87.70;;;;;;5114643;28;20076;-72
2021/12/27 08:56:38;;;;;;;12.02;7.90;;;6.10;87.70;;;;;;5114625;28;20055;-72
2021/12/27 08:59:05;;;;;;;12.02;8.15;;;6.20;87.70;;;;;;5096327;28;20012;-72
2021/12/27 09:01:30;;;;;;;11.75;7.97;;;6.20;87.70;;;;;;5114479;28;20024;-72
2021/12/27 09:03:56;;;;;;;10.70;7.40;;;6.20;87.60;;;;;;5096677;28;20585;-71
2021/12/27 09:06:22;;;;;;;12.30;8.13;;;6.30;87.70;;;;;;5114493;28;20027;-72
2021/12/27 09:08:48;;;;;;;11.02;7.47;;;6.30;87.70;;;;;;5114411;28;20106;-72
2021/12/27 09:11:13;;;;;;;11.70;7.65;;;6.30;87.60;;;;;;5096256;28;20085;-72
2021/12/27 09:13:39;;;;;;;10.75;7.22;;;6.30;87.60;;;;;;5096124;28;20023;-72
2021/12/27 09:16:07;;;;;;;11.50;7.78;;;6.40;87.60;;;;;;5114338;28;20055;-71
2021/12/27 09:18:35;;;;;;;9.90;7.20;;;6.40;87.60;;;;;;5114250;28;20407;-72
2021/12/27 09:21:02;;;;;;;9.63;7.05;;;6.40;87.60;;;;;;5114238;28;20420;-71
2021/12/27 09:23:29;;;;;;;8.82;6.70;;;6.40;87.60;;;;;;5095934;28;20118;-72
2021/12/27 09:25:55;;;;;;;10.68;7.57;;;6.50;87.60;;;;;;5114140;28;20034;-72
2021/12/27 09:28:21;;;;;;;11.82;7.85;;;6.50;87.60;;;;;;5096027;28;20110;-72
2021/12/27 09:30:46;;;;;;;10.18;7.30;;;6.50;87.50;;;;;;5114137;28;20028;-72
2021/12/27 09:33:12;;;;;;;8.73;6.70;;;6.50;87.50;;;;;;5114006;28;20058;-72
2021/12/27 09:35:38;;;;;;;11.73;7.40;;;6.50;87.50;;;;;;5095691;28;20023;-71
2021/12/27 09:38:04;;;;;;;11.25;7.20;;;6.50;87.60;;;;;;5114199;28;20020;-72
2021/12/27 09:40:30;;;;;;;10.65;7.38;;;6.50;87.70;;;;;;5113870;28;20514;-71
2021/12/27 09:42:56;;;;;;;10.13;6.65;;;6.50;87.70;;;;;;5095631;28;20099;-71
2021/12/27 09:45:23;;;;;;;9.77;7.07;;;6.60;87.70;;;;;;5095706;28;20359;-71
2021/12/27 09:47:50;;;;;;;10.20;6.80;;;6.60;87.70;;;;;;5095508;28;20023;-73
2021/12/27 09:50:28;;;;;;;9.55;6.72;;;6.60;87.70;;;;;;5095562;28;20019;-72
2021/12/27 09:52:54;;;;;;;14.10;9.43;;;6.70;87.70;;;;;;5095256;28;20043;-71
2021/12/27 09:55:20;;;;;;;11.50;7.65;;;6.70;87.60;;;;;;5095546;28;20382;-71
2021/12/27 09:57:48;;;;;;;12.55;8.23;;;6.70;87.50;;;;;;5095822;28;20131;-71
2021/12/27 10:00:14;;;;;;;13.65;8.02;;;6.80;87.50;;;;;;5113642;28;20054;-71
2021/12/27 10:02:40;;;;;;;11.10;7.82;;;6.90;87.50;;;;;;5095237;28;20028;-72
2021/12/27 10:05:06;;;;;;;10.27;7.55;;;6.90;87.40;;;;;;5095180;28;20107;-72
2021/12/27 10:07:41;;;;;;;12.38;6.82;;;7.00;87.40;;;;;;5113557;28;20030;-71
2021/12/27 10:10:08;;;;;;;10.77;6.93;;;7.00;87.40;;;;;;5113436;28;20065;-71
2021/12/27 10:12:34;;;;;;;9.77;7.20;;;7.00;88.00;;;;;;5113423;28;20065;-71
2021/12/27 10:15:03;;;;;;;12.13;7.35;;;7.00;87.30;;;;;;5113319;28;20032;-72
2021/12/27 10:17:34;;;;;;;10.38;7.70;;;7.00;87.40;;;;;;5095164;28;20024;-71
2021/12/27 10:20:13;;;;;;;10.10;6.95;;;7.00;87.40;;;;;;5095013;28;20039;-72
2021/12/27 10:22:42;;;;;;;10.80;7.25;;;7.00;87.40;;;;;;5113366;28;20016;-71
2021/12/27 10:25:13;;;;;;;10.38;7.15;;;7.00;87.50;;;;;;5094982;28;20555;-71
2021/12/27 10:27:39;;;;;;;10.60;7.55;;;7.10;87.50;;;;;;5095059;28;20020;-71
2021/12/27 10:30:10;;;;;;;10.93;7.15;;;7.10;87.50;;;;;;5094846;28;20039;-71
2021/12/27 10:32:36;;;;;;;10.57;8.25;;;7.20;87.50;;;;;;5094978;28;20073;-70
2021/12/27 10:35:05;;;;;;;9.95;7.25;;;7.20;87.40;;;;;;5091949;28;20031;-71
2021/12/27 10:37:32;;;;;;;10.73;7.68;;;7.20;87.30;;;;;;5114119;28;20486;-71
2021/12/27 10:40:11;;;;;;;10.02;7.43;;;7.30;87.30;;;;;;5099012;28;20015;-71
2021/12/27 10:42:47;;;;;;;9.77;7.07;;;7.30;87.30;;;;;;5099129;28;20509;-70
2021/12/27 10:45:22;;;;;;;8.43;6.40;;;7.30;87.20;;;;;;5117311;28;20458;-72
2021/12/27 10:47:52;;;;;;;9.25;6.55;;;7.30;87.10;;;;;;5099004;28;20075;-72
2021/12/27 10:50:23;;;;;;;11.25;6.78;;;7.40;87.10;;;;;;5117214;28;20386;-72
2021/12/27 10:52:58;;;;;;;10.73;6.80;;;7.40;87.10;;;;;;5098810;28;20181;-72
2021/12/27 10:55:39;;;;;;;9.15;6.90;;;7.50;87.10;;;;;;5098855;28;20026;-72
2021/12/27 10:58:19;;;;;;;7.30;5.55;;;7.50;87.00;;;;;;5098810;28;20035;-72
2021/12/27 11:01:01;;;;;;;8.77;5.97;;;7.50;86.90;;;;;;5098818;28;20463;-72
2021/12/27 11:03:31;;;;;;;7.97;5.80;;;7.60;87.00;;;;;;5098734;28;20038;-73
2021/12/27 11:05:58;;;;;;;10.00;6.80;;;7.60;86.90;;;;;;5098592;28;20036;-72
2021/12/27 11:08:23;;;;;;;7.20;5.70;;;7.60;86.90;;;;;;5116677;28;20475;-71
2021/12/27 11:10:50;;;;;;;8.77;5.63;;;7.70;86.90;;;;;;5098562;28;20023;-71
2021/12/27 11:13:16;;;;;;;7.60;5.70;;;7.60;86.90;;;;;;5116663;28;20112;-72
2021/12/27 11:15:42;;;;;;;9.13;5.78;;;7.70;86.90;;;;;;5098333;28;20201;-72
2021/12/27 11:18:09;;;;;;;9.13;6.03;;;7.70;87.00;;;;;;5116721;28;20169;-71
2021/12/27 11:20:35;;;;;;;7.15;5.65;;;7.60;87.00;;;;;;5098272;28;20056;-72
2021/12/27 11:23:03;;;;;;;7.85;5.65;;;7.60;87.00;;;;;;5098668;28;20031;-72
2021/12/27 11:25:37;;;;;;;9.27;6.70;;;7.60;87.00;;;;;;5098329;28;20478;-72
2021/12/27 11:28:06;;;;;;;8.48;5.93;;;7.60;87.10;;;;;;5116640;28;20024;-72
2021/12/27 11:30:34;;;;;;;10.23;6.65;;;7.60;87.20;;;;;;5098072;28;20104;-71
2021/12/27 11:33:09;;;;;;;7.93;5.88;;;7.60;87.30;;;;;;5116305;28;20027;-71
2021/12/27 11:35:38;;;;;;;8.13;5.80;;;7.60;87.30;;;;;;5116383;28;20027;-72
2021/12/27 11:38:05;;;;;;;9.20;6.32;;;7.60;87.30;;;;;;5116346;28;20478;-71
2021/12/27 11:40:47;;;;;;;8.95;6.45;;;7.70;87.20;;;;;;5098074;28;20023;-71
2021/12/27 11:43:13;;;;;;;7.22;5.53;;;7.80;87.10;;;;;;5116231;28;20603;-70
2021/12/27 11:45:42;;;;;;;9.20;6.10;;;7.80;87.00;;;;;;5116323;28;20044;-71
2021/12/27 11:48:13;;;;;;;7.75;5.65;;;7.90;87.00;;;;;;5097797;28;20494;-72
2021/12/27 11:50:57;;;;;;;9.02;6.28;;;7.90;87.00;;;;;;5096656;28;20027;-71
2021/12/27 11:53:30;;;;;;;7.70;5.78;;;7.90;87.00;;;;;;5097566;28;20035;-71
2021/12/27 11:55:55;;;;;;;8.02;5.82;;;8.00;87.00;;;;;;5116112;28;20111;-72
2021/12/27 11:58:35;;;;;;;7.47;5.55;;;8.00;87.00;;;;;;5116268;28;20103;-70
2021/12/27 12:01:02;;;;;;;7.53;5.15;;;8.10;87.00;;;;;;5115920;28;20127;-71
2021/12/27 12:03:37;;;;;;;7.60;5.57;;;8.10;86.90;;;;;;5097862;28;20042;-71
2021/12/27 12:06:04;;;;;;;7.50;5.50;;;8.10;86.80;;;;;;5097679;28;20043;-70
2021/12/27 12:08:38;;;;;;;7.38;5.82;;;8.20;86.90;;;;;;5115729;28;20066;-71
2021/12/27 12:11:07;;;;;;;6.97;5.40;;;8.20;86.90;;;;;;5097422;28;20039;-71
2021/12/27 12:13:44;;;;;;;7.03;5.30;;;8.30;86.90;;;;;;5097316;28;20399;-71
2021/12/27 12:16:14;;;;;;;6.20;4.68;;;8.30;86.90;;;;;;5115587;28;20104;-71
2021/12/27 12:19:10;;;;;;;6.90;5.13;;;8.30;86.80;;;;;;5097613;28;20022;-71
2021/12/27 12:21:41;;;;;;;5.97;4.72;;;8.40;86.80;;;;;;5115612;28;20059;-72
2021/12/27 12:24:20;;;;;;;6.45;4.88;;;8.40;86.80;;;;;;5097262;28;20552;-71
2021/12/27 12:26:56;;;;;;;6.93;4.97;;;8.40;86.80;;;;;;5097301;28;20114;-71
2021/12/27 12:29:23;;;;;;;6.00;4.78;;;8.40;86.80;;;;;;5115184;28;20035;-72
2021/12/27 12:31:56;;;;;;;6.68;5.30;;;8.40;86.80;;;;;;5096982;28;20495;-71
2021/12/27 12:34:22;;;;;;;6.45;5.10;;;8.40;86.80;;;;;;5115340;28;20023;-71
2021/12/27 12:37:02;;;;;;;6.10;4.97;;;8.40;86.80;;;;;;5096901;28;20491;-71
2021/12/27 12:39:37;;;;;;;5.57;4.40;;;8.40;87.40;;;;;;5115245;28;20106;-72
2021/12/27 12:42:19;;;;;;;6.20;5.00;;;8.40;86.80;;;;;;5115177;28;20054;-71
2021/12/27 12:44:50;;;;;;;6.43;4.90;;;8.50;86.80;;;;;;5115152;28;20054;-72
2021/12/27 12:47:17;;;;;;;7.18;5.00;;;8.50;86.80;;;;;;5096815;28;20128;-71
2021/12/27 12:53:06;;;;;;;5.60;4.55;;;8.50;86.80;;;;;;5106735;28;20046;-71
2021/12/27 12:55:35;;;;;;;7.43;5.15;;;8.60;86.90;;;;;;5096451;28;20020;-71
2021/12/27 12:58:01;;;;;;;6.90;5.65;;;8.60;86.80;;;;;;5111486;28;20024;-71
2021/12/27 13:03:55;;;;;;;6.45;4.85;;;8.70;86.80;;;;;;5114834;28;20073;-71
2021/12/27 13:06:21;;;;;;;6.18;4.32;;;8.60;86.70;;;;;;5114778;28;20516;-71